»·PEaware :: PAA576 KSLC-KSFO

PAA576 :: KSLC-KSFO

FLIGHT INFORMATION

Flight Status: Arrived
Operator:
PanAm
More flights by this operator :: More flights under this callsign
Pilot: Anonymous 8274 (8274)
Aircraft: BOEING 727-200
(B722)
More flights by this aircraft type
Origin: KSLC Salt Lake City Intl
United States
Destination: KSFO San Francisco Intl
United States
More flights between these airports :: More routes between these airports
Route: SEVYR3 OAL MOD8
File this flight plan on PilotEdge
Remarks:
Altitude:
(Current/Filed)
32,000ft
Speed:
(Current/Filed)
460kts
Departed: 07-Aug-18 04:38 PM
Arrived: 07-Aug-18 06:06 PM
Distance/Time
Traveled:
519nm/1:28
Distance/Time
To Go:
Arrived

Flight Plot

Page will automatically refresh every two minutes.

Flight plan parsing failed; only flown route is shown


Map Options




Map Legend


Flown Route
Filed Route
Departure Airport
Arrival Airport
Navaid (VOR, NDB)
Fix

Horizontal Profiles

Position Reports

Time Latitude Longitude Heading Altitude Ground
Speed
07-Aug-18 15:48 40.788557 -111.984237 251 4239ft 0kts
07-Aug-18 15:49 40.788557 -111.984237 251 4239ft 0kts
07-Aug-18 15:50 40.788557 -111.984237 251 4239ft 0kts
07-Aug-18 15:51 40.788557 -111.984237 251 4239ft 0kts
07-Aug-18 15:52 40.788557 -111.984237 251 4239ft 0kts
07-Aug-18 15:53 40.788557 -111.984237 251 4239ft 0kts
07-Aug-18 15:54 40.788557 -111.984237 251 4239ft 0kts
07-Aug-18 15:55 40.788557 -111.984237 251 4239ft 0kts
07-Aug-18 15:56 40.788557 -111.984237 251 4239ft 0kts
07-Aug-18 15:57 40.788557 -111.984237 251 4239ft 0kts
07-Aug-18 15:58 40.788557 -111.984237 251 4239ft 0kts
07-Aug-18 15:59 40.788557 -111.984237 251 4239ft 0kts
07-Aug-18 16:00 40.788557 -111.984237 251 4239ft 0kts
07-Aug-18 16:01 40.788557 -111.984237 251 4239ft 0kts
07-Aug-18 16:02 40.788557 -111.984237 251 4239ft 0kts
07-Aug-18 16:03 40.788557 -111.984237 251 4239ft 0kts
07-Aug-18 16:04 40.788565 -111.984204 251 4239ft 2kts
07-Aug-18 16:05 40.788579 -111.983455 308 4239ft 2kts
07-Aug-18 16:06 40.788342 -111.983255 341 4238ft 0kts
07-Aug-18 16:07 40.788342 -111.983255 341 4238ft 0kts
07-Aug-18 16:08 40.788342 -111.983255 341 4238ft 0kts
07-Aug-18 16:09 40.788342 -111.983255 341 4238ft 0kts
07-Aug-18 16:10 40.788342 -111.983255 341 4238ft 0kts
07-Aug-18 16:11 40.788342 -111.983255 341 4238ft 0kts
07-Aug-18 16:12 40.788342 -111.983255 341 4238ft 0kts
07-Aug-18 16:13 40.788342 -111.983255 341 4238ft 0kts
07-Aug-18 16:14 40.788342 -111.983255 341 4238ft 0kts
07-Aug-18 16:15 40.789001 -111.983541 341 4238ft 11kts
07-Aug-18 16:16 40.789830 -111.980142 117 4238ft 11kts
07-Aug-18 16:17 40.789686 -111.978625 84 4238ft 0kts
07-Aug-18 16:18 40.789686 -111.978625 84 4238ft 0kts
07-Aug-18 16:19 40.789686 -111.978624 84 4238ft 0kts
07-Aug-18 16:20 40.789686 -111.978623 84 4238ft 0kts
07-Aug-18 16:21 40.789686 -111.978625 84 4238ft 0kts
07-Aug-18 16:22 40.789689 -111.978573 84 4238ft 1kts
07-Aug-18 16:23 40.788332 -111.976885 175 4238ft 15kts
07-Aug-18 16:24 40.780922 -111.976007 174 4238ft 24kts
07-Aug-18 16:25 40.775642 -111.974922 175 4238ft 22kts
07-Aug-18 16:26 40.774763 -111.974787 157 4238ft 0kts
07-Aug-18 16:27 40.774763 -111.974787 157 4238ft 0kts
07-Aug-18 16:28 40.774763 -111.974787 157 4238ft 0kts
07-Aug-18 16:29 40.774763 -111.974787 157 4238ft 0kts
07-Aug-18 16:30 40.774763 -111.974787 157 4238ft 0kts
07-Aug-18 16:31 40.774763 -111.974787 157 4238ft 0kts
07-Aug-18 16:32 40.774763 -111.974787 157 4238ft 0kts
07-Aug-18 16:33 40.774763 -111.974787 157 4238ft 0kts
07-Aug-18 16:35 40.774763 -111.974787 157 4238ft 0kts
07-Aug-18 16:36 40.774763 -111.974787 157 4238ft 0kts
07-Aug-18 16:37 40.774502 -111.974274 92 4238ft 9kts
07-Aug-18 16:38 40.775331 -111.973212 355 4238ft 5kts
07-Aug-18 16:39 40.805338 -111.976701 353 4496ft 171kts
07-Aug-18 16:40 40.826494 -112.023318 271 6091ft 199kts
07-Aug-18 16:41 40.823524 -112.105724 270 7834ft 247kts
07-Aug-18 16:42 40.820745 -112.209047 268 9564ft 301kts
07-Aug-18 16:43 40.804233 -112.317010 224 11748ft 326kts
07-Aug-18 16:44 40.716090 -112.352316 192 14065ft 341kts
07-Aug-18 16:45 40.621193 -112.375415 192 16134ft 355kts
07-Aug-18 16:46 40.522592 -112.397593 192 17989ft 367kts
07-Aug-18 16:47 40.420274 -112.419745 192 19683ft 378kts
07-Aug-18 16:48 40.315571 -112.442509 192 21206ft 388kts
07-Aug-18 16:49 40.207956 -112.466045 192 22588ft 398kts
07-Aug-18 16:50 40.102892 -112.508877 206 23782ft 401kts
07-Aug-18 16:51 40.001361 -112.570992 211 24959ft 405kts
07-Aug-18 16:52 39.901724 -112.641534 211 26011ft 412kts
07-Aug-18 16:53 39.803990 -112.710639 211 26973ft 416kts
07-Aug-18 16:54 39.704387 -112.787662 214 27875ft 420kts
07-Aug-18 16:55 39.604775 -112.864444 203 28921ft 421kts
07-Aug-18 16:56 39.486623 -112.866997 179 29824ft 428kts
07-Aug-18 16:57 39.369028 -112.867733 187 30683ft 423kts
07-Aug-18 16:58 39.252592 -112.881864 189 31498ft 421kts
07-Aug-18 16:59 39.151621 -112.937416 240 32070ft 399kts
07-Aug-18 17:00 39.121075 -113.073118 265 32111ft 406kts
07-Aug-18 17:01 39.110832 -113.220546 266 32107ft 423kts
07-Aug-18 17:02 39.101614 -113.374018 265 32105ft 438kts
07-Aug-18 17:03 39.072886 -113.528500 256 32104ft 452kts
07-Aug-18 17:04 39.042231 -113.682312 256 32105ft 462kts
07-Aug-18 17:05 39.003991 -113.840159 250 32135ft 467kts
07-Aug-18 17:06 38.958197 -113.997981 250 32081ft 482kts
07-Aug-18 17:07 38.910945 -114.161662 251 32185ft 496kts
07-Aug-18 17:08 38.870109 -114.330032 253 32185ft 507kts
07-Aug-18 17:09 38.828320 -114.504022 253 32182ft 514kts
07-Aug-18 17:10 38.787452 -114.674889 253 32183ft 514kts
07-Aug-18 17:11 38.745993 -114.848661 253 32184ft 514kts
07-Aug-18 17:12 38.704607 -115.022669 253 32179ft 505kts
07-Aug-18 17:13 38.664392 -115.192319 253 32180ft 493kts
07-Aug-18 17:14 38.623018 -115.357438 244 32169ft 484kts
07-Aug-18 17:15 38.560179 -115.507309 243 32180ft 478kts
07-Aug-18 17:16 38.500025 -115.653408 248 32172ft 471kts
07-Aug-18 17:17 38.466059 -115.812011 258 32182ft 465kts
07-Aug-18 17:18 38.440277 -115.973430 258 32156ft 463kts
07-Aug-18 17:19 38.414816 -116.133375 259 32155ft 460kts
07-Aug-18 17:20 38.389482 -116.293155 259 32101ft 462kts
07-Aug-18 17:21 38.364139 -116.453761 259 32101ft 463kts
07-Aug-18 17:22 38.338884 -116.614578 259 32100ft 463kts
07-Aug-18 17:23 38.313715 -116.772259 258 32103ft 463kts
07-Aug-18 17:24 38.263408 -116.922255 246 32103ft 464kts
07-Aug-18 17:25 38.209671 -117.071350 246 32102ft 465kts
07-Aug-18 17:26 38.156050 -117.220297 246 32102ft 466kts
07-Aug-18 17:27 38.102291 -117.369774 246 32102ft 466kts
07-Aug-18 17:28 38.048536 -117.519271 246 32101ft 467kts
07-Aug-18 17:29 38.029928 -117.673344 263 32098ft 462kts
07-Aug-18 17:30 37.994740 -117.828067 266 32123ft 458kts
07-Aug-18 17:31 37.981841 -117.988449 263 32103ft 460kts
07-Aug-18 17:32 37.966676 -118.148965 263 31970ft 464kts
07-Aug-18 17:33 37.951614 -118.310440 263 32082ft 463kts
07-Aug-18 17:34 37.936643 -118.471345 263 32258ft 460kts
07-Aug-18 17:35 37.921732 -118.632707 264 32263ft 461kts
07-Aug-18 17:36 37.904152 -118.788134 260 32265ft 462kts
07-Aug-18 17:37 37.883431 -118.941456 260 32265ft 464kts
07-Aug-18 17:38 37.861821 -119.102041 260 32264ft 465kts
07-Aug-18 17:39 37.840204 -119.263556 260 32228ft 467kts
07-Aug-18 17:40 37.818663 -119.425284 261 32209ft 468kts
07-Aug-18 17:41 37.797206 -119.587069 261 32211ft 469kts
07-Aug-18 17:42 37.777325 -119.737412 260 32148ft 454kts
07-Aug-18 17:43 37.762299 -119.892394 263 29141ft 464kts
07-Aug-18 17:44 37.748005 -120.054046 260 25990ft 470kts
07-Aug-18 17:45 37.716493 -120.214141 256 23965ft 462kts
07-Aug-18 17:46 37.686268 -120.366951 256 23961ft 438kts
07-Aug-18 17:47 37.666526 -120.515769 262 23963ft 427kts
07-Aug-18 17:48 37.656860 -120.657385 269 23927ft 420kts
07-Aug-18 17:49 37.651266 -120.797715 260 23847ft 414kts
07-Aug-18 17:50 37.628174 -120.933138 261 22620ft 391kts
07-Aug-18 17:51 37.613806 -121.066722 259 20705ft 381kts
07-Aug-18 17:52 37.597789 -121.196615 263 18925ft 372kts
07-Aug-18 17:53 37.585733 -121.323897 263 17221ft 363kts
07-Aug-18 17:54 37.573615 -121.447835 263 15324ft 343kts
07-Aug-18 17:55 37.558344 -121.565465 261 11252ft 336kts
07-Aug-18 17:56 37.543217 -121.673736 260 10944ft 314kts
07-Aug-18 17:57 37.528174 -121.781262 261 10960ft 297kts
07-Aug-18 17:58 37.506149 -121.862105 241 10649ft 214kts
07-Aug-18 17:59 37.488890 -121.933370 279 7997ft 235kts
07-Aug-18 18:00 37.496859 -122.012366 279 6463ft 224kts
07-Aug-18 18:01 37.504240 -122.088686 279 4870ft 218kts
07-Aug-18 18:02 37.527411 -122.154800 307 3319ft 209kts
07-Aug-18 18:03 37.554411 -122.219981 293 1793ft 218kts
07-Aug-18 18:04 37.581774 -122.282489 298 1534ft 176kts
07-Aug-18 18:05 37.601735 -122.329581 302 576ft 137kts
07-Aug-18 18:06 37.618286 -122.368479 298 25ft 106kts
07-Aug-18 18:07 37.622265 -122.382416 267 24ft 21kts

Navigation Log

Ident Type
Flight plan parsing failed, navigation log unavailable